Terminal Aerodrome Forecast
Issued by NWS Quad Cities IA IL

Home | Current Version | Previous Version | Text Only | Print | Product List | Glossary On
Versions: 1 2 3 4 5 6 7 8 9 10 11 12 13 14 15 16
000
FTUS43 KDVN 282300
TAFMLI
TAF
KMLI 282320Z 2900/2924 35003KT P6SM SCT250
     FM290500 03006KT P6SM BKN200
     FM291300 04007KT P6SM SCT050 OVC100
     FM291800 02008KT P6SM SCT040 OVC060=

USA.gov is the U.S. government's official web portal to all federal, state and local government web resources and services.